createdAt,value
2018-09-11T00:00:28.299Z,4.87
2018-09-11T00:03:02.210Z,5.30
2018-09-11T00:08:25.706Z,4.47
2018-09-11T00:11:01.725Z,4.43
2018-09-11T00:19:23.210Z,5.30
2018-09-11T00:27:54.090Z,5.10
2018-09-11T00:30:24.742Z,5.60
2018-09-11T00:32:56.271Z,5.50
2018-09-11T00:35:28.202Z,5.63
2018-09-11T00:38:01.422Z,4.80
2018-09-11T00:40:42.782Z,5.30
2018-09-11T00:43:12.300Z,5.17
2018-09-11T00:45:41.802Z,5.40
2018-09-11T00:48:12.350Z,5.13
2018-09-11T00:51:02.582Z,4.97
2018-09-11T00:53:52.179Z,4.90
2018-09-11T00:56:26.822Z,5.17
2018-09-11T00:59:01.667Z,4.93
2018-09-11T01:01:32.202Z,5.10
2018-09-11T01:04:05.474Z,4.83
2018-09-11T01:06:39.410Z,4.50
2018-09-11T01:09:09.606Z,5.03
2018-09-11T01:11:39.686Z,4.93
2018-09-11T01:14:10.162Z,5.63
2018-09-11T01:16:47.102Z,5.00
2018-09-11T01:19:34.350Z,4.90
2018-09-11T01:22:04.230Z,4.63
2018-09-11T01:24:39.310Z,4.93
2018-09-11T01:27:12.314Z,5.33
2018-09-11T01:29:58.782Z,4.70
2018-09-11T01:32:39.223Z,5.37
2018-09-11T01:38:11.739Z,5.37
2018-09-11T01:40:44.426Z,5.20
2018-09-11T01:43:32.734Z,5.50
2018-09-11T01:46:23.264Z,5.30
2018-09-11T01:48:56.463Z,5.33
2018-09-11T01:51:36.330Z,5.00
2018-09-11T01:54:10.710Z,5.17
2018-09-11T01:59:39.626Z,4.57
2018-09-11T02:02:27.431Z,4.90
2018-09-11T02:05:04.535Z,4.00
2018-09-11T02:07:34.267Z,5.40
2018-09-11T02:10:22.612Z,4.90
2018-09-11T02:12:57.651Z,5.40
2018-09-11T02:15:39.779Z,4.87
2018-09-11T02:18:11.603Z,4.47
2018-09-11T02:20:46.307Z,4.83
2018-09-11T02:23:16.022Z,5.70
2018-09-11T02:28:50.111Z,4.63
2018-09-11T02:31:20.584Z,4.73
2018-09-11T02:34:13.115Z,5.00
2018-09-11T02:37:12.091Z,5.53
2018-09-11T02:39:46.766Z,4.63
2018-09-11T02:42:37.842Z,4.70
2018-09-11T02:45:14.831Z,6.03
2018-09-11T02:47:48.972Z,5.47
2018-09-11T02:50:18.759Z,4.60
2018-09-11T02:53:08.111Z,5.97
2018-09-11T02:55:39.610Z,5.40
2018-09-11T02:58:11.147Z,6.10
2018-09-11T03:00:40.635Z,5.63
2018-09-11T03:03:14.695Z,5.67
2018-09-11T03:05:57.522Z,5.63
2018-09-11T03:08:38.019Z,5.63
2018-09-11T03:11:11.438Z,5.80
2018-09-11T03:13:58.359Z,5.67
2018-09-11T03:19:37.226Z,5.70
2018-09-11T03:22:06.790Z,5.80
2018-09-11T03:24:42.042Z,5.93
2018-09-11T03:27:18.174Z,5.53
2018-09-11T03:29:55.848Z,4.83
2018-09-11T03:32:37.478Z,5.73
2018-09-11T03:35:17.561Z,6.47
2018-09-11T03:37:48.326Z,5.60
2018-09-11T03:40:17.967Z,5.00
2018-09-11T03:42:49.737Z,5.77
2018-09-11T03:45:22.310Z,6.57
2018-09-11T03:48:11.334Z,6.23
2018-09-11T03:50:49.486Z,5.40
2018-09-11T03:53:21.230Z,6.00
2018-09-11T03:55:56.507Z,5.40
2018-09-11T03:58:38.030Z,5.87
2018-09-11T04:01:28.915Z,6.17
2018-09-11T04:04:27.318Z,5.40
2018-09-11T04:07:17.915Z,5.93
2018-09-11T04:09:50.515Z,5.77
2018-09-11T04:15:26.162Z,6.27
2018-09-11T04:17:55.706Z,6.30
2018-09-11T04:20:45.334Z,6.07
2018-09-11T04:23:37.066Z,6.90
2018-09-11T04:26:12.894Z,6.50
2018-09-11T04:28:48.155Z,6.57
2018-09-11T04:34:12.282Z,6.43
2018-09-11T04:37:02.142Z,5.77
2018-09-11T04:39:38.299Z,7.20
2018-09-11T04:42:24.633Z,6.60
2018-09-11T04:47:59.378Z,8.00
2018-09-11T04:50:32.150Z,8.37
2018-09-11T04:55:59.864Z,7.87
2018-09-11T04:58:34.650Z,7.27
2018-09-11T05:01:06.150Z,8.20
2018-09-11T05:03:39.402Z,9.23
2018-09-11T05:09:05.750Z,8.57
2018-09-11T05:11:39.266Z,10.23
2018-09-11T05:14:36.478Z,9.13
2018-09-11T05:17:23.590Z,9.10
2018-09-11T05:20:05.489Z,8.70
2018-09-11T05:22:38.730Z,8.80
2018-09-11T05:25:08.426Z,8.20
2018-09-11T05:27:48.954Z,8.07
2018-09-11T05:30:23.218Z,8.53
2018-09-11T05:36:04.778Z,8.07
2018-09-11T05:38:39.058Z,8.10
2018-09-11T05:41:09.758Z,8.60
2018-09-11T05:43:45.290Z,9.10
2018-09-11T05:46:23.806Z,9.20
2018-09-11T05:48:55.482Z,7.50
2018-09-11T05:51:30.320Z,8.47
2018-09-11T05:54:01.166Z,10.97
2018-09-11T05:56:38.867Z,10.03
2018-09-11T05:59:16.001Z,9.00
2018-09-11T06:01:58.213Z,8.57
2018-09-11T06:04:31.841Z,7.53
2018-09-11T06:07:06.245Z,8.80
2018-09-11T06:09:39.965Z,7.90
2018-09-11T06:12:09.753Z,9.20
2018-09-11T06:14:52.994Z,7.80
2018-09-11T06:17:35.793Z,8.07
2018-09-11T06:20:08.794Z,7.00
2018-09-11T06:22:38.285Z,7.53
2018-09-11T06:25:11.517Z,7.40
2018-09-11T06:27:40.978Z,6.67
2018-09-11T06:30:12.846Z,6.60
2018-09-11T06:33:01.553Z,7.10
2018-09-11T06:35:38.722Z,7.20
2018-09-11T06:38:08.249Z,6.53
2018-09-11T06:40:37.917Z,7.00
2018-09-11T06:43:17.614Z,5.33
2018-09-11T06:46:11.080Z,5.57
2018-09-11T06:48:42.541Z,6.37
2018-09-11T06:51:12.994Z,5.40
2018-09-11T06:53:43.662Z,5.23
2018-09-11T06:56:22.937Z,4.93
2018-09-11T06:59:04.666Z,6.03
2018-09-11T07:01:34.189Z,5.23
2018-09-11T07:04:03.834Z,5.50
2018-09-11T07:06:33.673Z,6.00
2018-09-11T07:09:15.598Z,5.37
2018-09-11T07:11:54.932Z,5.10
2018-09-11T07:14:25.690Z,4.47
2018-09-11T07:16:55.477Z,4.77
2018-09-11T07:19:25.062Z,5.03
2018-09-11T07:21:56.485Z,5.57
2018-09-11T07:24:30.098Z,4.60
2018-09-11T07:27:04.377Z,4.90
2018-09-11T07:29:38.937Z,4.93
2018-09-11T07:32:08.741Z,4.60
2018-09-11T07:34:38.314Z,4.67
2018-09-11T07:37:14.451Z,4.53
2018-09-11T07:39:44.234Z,3.80
2018-09-11T07:42:15.977Z,4.20
2018-09-11T07:44:45.767Z,3.40
2018-09-11T07:47:21.221Z,4.50
2018-09-11T07:49:51.682Z,4.67
2018-09-11T07:52:27.901Z,4.23
2018-09-11T07:55:01.345Z,3.83
2018-09-11T07:57:34.531Z,3.50
2018-09-11T08:00:09.702Z,3.90
2018-09-11T08:02:47.521Z,4.20
2018-09-11T08:05:21.867Z,3.37
2018-09-11T08:07:53.482Z,3.97
2018-09-11T08:10:23.201Z,3.50
2018-09-11T08:13:10.705Z,3.33
2018-09-11T08:15:45.942Z,3.30
2018-09-11T08:18:22.086Z,3.40
2018-09-11T08:20:51.925Z,3.50
2018-09-11T08:23:21.386Z,3.10
2018-09-11T08:26:03.138Z,3.07
2018-09-11T08:28:34.822Z,3.30
2018-09-11T08:31:22.100Z,3.47
2018-09-11T08:33:53.898Z,3.30
2018-09-11T08:36:29.126Z,3.30
2018-09-11T08:39:09.518Z,2.97
2018-09-11T08:41:39.050Z,3.47
2018-09-11T08:44:09.518Z,3.50
2018-09-11T08:46:39.050Z,3.70
2018-09-11T08:49:09.418Z,3.03
2018-09-11T08:51:57.046Z,2.73
2018-09-11T08:54:37.398Z,3.23
2018-09-11T08:57:07.159Z,3.07
2018-09-11T08:59:36.914Z,3.30
2018-09-11T09:02:23.635Z,3.17
2018-09-11T09:04:53.275Z,2.70
2018-09-11T09:07:27.530Z,2.03
2018-09-11T09:10:10.892Z,2.20
2018-09-11T09:12:41.454Z,2.47
2018-09-11T09:15:11.118Z,2.40
2018-09-11T09:17:54.931Z,2.87
2018-09-11T09:20:36.651Z,2.57
2018-09-11T09:23:07.238Z,2.27
2018-09-11T09:25:37.690Z,2.40
2018-09-11T09:28:07.184Z,2.10
2018-09-11T09:30:37.678Z,2.50
2018-09-11T09:33:07.142Z,2.27
2018-09-11T09:35:37.810Z,2.90
2018-09-11T09:38:08.818Z,2.40
2018-09-11T09:40:38.257Z,2.80
2018-09-11T09:43:14.482Z,2.70
2018-09-11T09:45:44.922Z,2.57
2018-09-11T09:48:36.538Z,2.53
2018-09-11T09:51:07.970Z,2.87
2018-09-11T09:53:37.441Z,2.37
2018-09-11T09:56:11.705Z,3.10
2018-09-11T09:58:45.566Z,2.70
2018-09-11T10:01:28.120Z,2.53
2018-09-11T10:06:56.663Z,2.60
2018-09-11T10:09:30.557Z,3.00
2018-09-11T10:12:01.232Z,2.83
2018-09-11T10:14:30.782Z,2.10
2018-09-11T10:17:03.922Z,2.53
2018-09-11T10:19:34.585Z,2.63
2018-09-11T10:22:08.609Z,2.50
2018-09-11T10:24:38.094Z,1.90
2018-09-11T10:27:15.645Z,2.50
2018-09-11T10:29:49.242Z,2.30
2018-09-11T10:32:35.701Z,2.17
2018-09-11T10:35:07.149Z,2.20
2018-09-11T10:37:36.678Z,1.77
2018-09-11T10:40:25.518Z,2.33
2018-09-11T10:43:18.069Z,2.50
2018-09-11T10:45:47.533Z,2.43
2018-09-11T10:48:35.721Z,2.57
2018-09-11T10:51:12.218Z,2.27
2018-09-11T10:53:45.478Z,2.20
2018-09-11T10:56:35.698Z,1.73
2018-09-11T10:59:10.169Z,2.37
2018-09-11T11:01:39.614Z,2.50
2018-09-11T11:07:11.182Z,2.17
2018-09-11T11:09:40.891Z,1.87
2018-09-11T11:12:11.554Z,2.17
2018-09-11T11:14:44.924Z,2.60
2018-09-11T11:17:18.014Z,2.27
2018-09-11T11:20:17.181Z,2.27
2018-09-11T11:22:57.022Z,2.07
2018-09-11T11:25:26.665Z,2.00
2018-09-11T11:27:58.118Z,1.90
2018-09-11T11:30:27.566Z,2.17
2018-09-11T11:33:00.038Z,1.90
2018-09-11T11:35:30.533Z,2.27
2018-09-11T11:38:00.010Z,2.57
2018-09-11T11:40:30.681Z,2.10
2018-09-11T11:43:13.021Z,1.93
2018-09-11T11:45:46.445Z,2.47
2018-09-11T11:48:17.017Z,2.50
2018-09-11T11:50:46.453Z,2.17
2018-09-11T11:53:23.877Z,1.97
2018-09-11T11:55:57.280Z,2.07
2018-09-11T11:58:31.826Z,2.00
2018-09-11T12:01:01.494Z,2.30
2018-09-11T12:03:35.505Z,1.73
2018-09-11T12:06:08.621Z,1.63
2018-09-11T12:08:41.289Z,2.33
2018-09-11T12:11:23.289Z,1.77
2018-09-11T12:13:53.945Z,1.80
2018-09-11T12:16:24.614Z,1.70
2018-09-11T12:18:54.361Z,1.90
2018-09-11T12:21:35.820Z,2.10
2018-09-11T12:24:06.545Z,1.97
2018-09-11T12:26:38.461Z,2.10
2018-09-11T12:29:09.194Z,2.03
2018-09-11T12:31:39.995Z,1.80
2018-09-11T12:34:09.821Z,1.40
2018-09-11T12:36:41.431Z,2.03
2018-09-11T12:39:20.702Z,1.70
2018-09-11T12:41:55.942Z,1.93
2018-09-11T12:44:36.379Z,2.03
2018-09-11T12:47:07.486Z,2.20
2018-09-11T12:49:37.065Z,2.33
2018-09-11T12:52:18.314Z,1.63
2018-09-11T12:57:43.550Z,1.37
2018-09-11T13:00:20.258Z,1.50
2018-09-11T13:08:48.850Z,1.40
2018-09-11T13:11:18.398Z,1.93
2018-09-11T13:14:15.350Z,2.07
2018-09-11T13:16:54.319Z,2.20
2018-09-11T13:19:28.741Z,2.07
2018-09-11T13:22:05.041Z,1.63
2018-09-11T13:24:36.481Z,1.87
2018-09-11T13:27:06.186Z,2.33
2018-09-11T13:29:35.722Z,1.60
2018-09-11T13:32:06.434Z,2.00
2018-09-11T13:34:37.205Z,2.40
2018-09-11T13:37:08.822Z,2.63
2018-09-11T13:39:44.525Z,1.70
2018-09-11T13:42:17.150Z,1.80
2018-09-11T13:44:48.673Z,2.20
2018-09-11T13:47:19.303Z,2.10
2018-09-11T13:49:53.261Z,2.03
2018-09-11T13:52:28.485Z,1.77
2018-09-11T13:54:58.985Z,2.10
2018-09-11T13:57:47.826Z,1.90
2018-09-11T14:00:18.593Z,2.13
2018-09-11T14:02:51.545Z,1.93
2018-09-11T14:05:25.276Z,2.30
2018-09-11T14:08:00.749Z,2.33
2018-09-11T14:10:31.193Z,1.90
2018-09-11T14:13:05.933Z,2.20
2018-09-11T14:15:35.465Z,1.97
2018-09-11T14:18:10.858Z,2.27
2018-09-11T14:20:46.714Z,1.67
2018-09-11T14:23:34.133Z,1.77
2018-09-11T14:26:08.501Z,1.80
2018-09-11T14:28:40.054Z,2.07
2018-09-11T14:31:13.141Z,2.40
2018-09-11T14:33:42.589Z,1.93
2018-09-11T14:36:32.442Z,1.73
2018-09-11T14:39:09.713Z,1.60
2018-09-11T14:41:40.514Z,1.60
2018-09-11T14:44:10.082Z,1.50
2018-09-11T14:46:39.827Z,2.00
2018-09-11T14:49:25.517Z,2.43
2018-09-11T14:51:58.577Z,1.90
2018-09-11T14:54:33.574Z,1.67
2018-09-11T14:57:03.077Z,2.07
2018-09-11T14:59:36.184Z,2.00
2018-09-11T15:02:19.741Z,2.13
2018-09-11T15:04:54.033Z,1.60
2018-09-11T15:07:36.110Z,1.90
2018-09-11T15:10:05.682Z,2.50
2018-09-11T15:12:36.137Z,2.13
2018-09-11T15:15:23.555Z,1.60
2018-09-11T15:17:55.006Z,2.20
2018-09-11T15:20:24.750Z,2.20
2018-09-11T15:22:54.762Z,1.80
2018-09-11T15:25:27.442Z,2.10
2018-09-11T15:28:07.321Z,2.27
2018-09-11T15:30:36.941Z,2.43
2018-09-11T15:33:06.881Z,2.33
2018-09-11T15:35:38.333Z,1.67
2018-09-11T15:38:19.572Z,2.07
2018-09-11T15:40:53.975Z,2.23
2018-09-11T15:43:35.629Z,1.93
2018-09-11T15:46:05.167Z,2.33
2018-09-11T15:48:34.640Z,2.63
2018-09-11T15:51:08.049Z,2.20
2018-09-11T15:53:57.793Z,2.50
2018-09-11T15:56:33.158Z,2.47
2018-09-11T15:59:02.906Z,2.03
2018-09-11T16:01:33.505Z,2.53
2018-09-11T16:04:03.949Z,2.37
2018-09-11T16:06:37.797Z,2.27
2018-09-11T16:12:03.489Z,1.90
2018-09-11T16:14:51.355Z,2.10
2018-09-11T16:17:30.416Z,2.10
2018-09-11T16:20:01.100Z,1.87
2018-09-11T16:22:32.933Z,1.90
2018-09-11T16:25:02.733Z,1.90
2018-09-11T16:27:32.325Z,2.40
2018-09-11T16:30:06.889Z,2.27
2018-09-11T16:32:36.374Z,2.57
2018-09-11T16:35:09.441Z,2.53
2018-09-11T16:37:42.318Z,1.93
2018-09-11T16:40:11.870Z,2.70
2018-09-11T16:42:45.857Z,2.80
2018-09-11T16:45:22.753Z,2.30
2018-09-11T16:48:15.665Z,2.50
2018-09-11T16:50:45.105Z,1.90
2018-09-11T16:53:15.781Z,2.63
2018-09-11T16:55:52.381Z,2.40
2018-09-11T16:58:22.113Z,2.53
2018-09-11T17:00:51.924Z,2.90
2018-09-11T17:03:33.617Z,2.33
2018-09-11T17:06:03.108Z,2.43
2018-09-11T17:08:32.576Z,2.07
2018-09-11T17:11:02.237Z,2.37
2018-09-11T17:13:35.873Z,2.30
2018-09-11T17:16:05.465Z,2.00
2018-09-11T17:18:35.246Z,2.50
2018-09-11T17:21:10.545Z,2.60
2018-09-11T17:23:45.177Z,2.97
2018-09-11T17:26:22.685Z,2.37
2018-09-11T17:29:02.610Z,2.40
2018-09-11T17:31:32.161Z,2.20
2018-09-11T17:34:19.745Z,2.70
2018-09-11T17:37:08.801Z,2.40
2018-09-11T17:39:40.268Z,2.90
2018-09-11T17:42:11.737Z,2.23
2018-09-11T17:44:47.249Z,2.20
2018-09-11T17:47:21.757Z,2.50
2018-09-11T17:49:59.468Z,2.80
2018-09-11T17:52:31.158Z,2.40
2018-09-11T17:55:00.709Z,2.97
2018-09-11T17:57:30.501Z,2.63
2018-09-11T18:00:01.105Z,2.60
2018-09-11T18:02:36.049Z,4.20
2018-09-11T18:05:19.253Z,3.00
2018-09-11T18:07:48.773Z,2.80
2018-09-11T18:10:19.257Z,3.10
2018-09-11T18:12:49.961Z,3.10
2018-09-11T18:15:19.909Z,2.60
2018-09-11T18:18:02.560Z,3.10
2018-09-11T18:20:35.529Z,3.10
2018-09-11T18:23:08.398Z,2.50
2018-09-11T18:25:56.018Z,2.50
2018-09-11T18:28:35.681Z,2.93
2018-09-11T18:33:59.235Z,2.83
2018-09-11T18:36:34.302Z,3.10
2018-09-11T18:39:09.696Z,2.87
2018-09-11T18:41:44.729Z,2.93
2018-09-11T18:44:14.201Z,2.57
2018-09-11T18:46:53.442Z,2.67
2018-09-11T18:49:23.929Z,3.27
2018-09-11T18:51:54.521Z,3.47
2018-09-11T18:54:23.893Z,2.77
2018-09-11T18:56:59.729Z,3.07
2018-09-11T18:59:29.585Z,2.90
2018-09-11T19:02:02.435Z,3.70
2018-09-11T19:04:33.233Z,3.37
2018-09-11T19:07:07.077Z,3.67
2018-09-11T19:09:37.528Z,3.13
2018-09-11T19:12:07.061Z,3.60
2018-09-11T19:14:38.513Z,3.47
2018-09-11T19:17:09.005Z,3.20
2018-09-11T19:19:39.478Z,2.87
2018-09-11T19:22:09.957Z,3.30
2018-09-11T19:24:39.661Z,3.50
2018-09-11T19:27:10.285Z,2.83
2018-09-11T19:29:40.085Z,2.93
2018-09-11T19:32:33.633Z,3.40
2018-09-11T19:35:04.269Z,3.03
2018-09-11T19:37:34.897Z,3.47
2018-09-11T19:40:12.686Z,3.97
2018-09-11T19:43:04.837Z,5.20
2018-09-11T19:45:37.397Z,4.20
2018-09-11T19:48:06.929Z,3.17
2018-09-11T19:53:30.633Z,3.73
2018-09-11T19:56:05.372Z,4.00
2018-09-11T19:58:34.877Z,4.30
2018-09-11T20:01:05.417Z,2.83
2018-09-11T20:03:34.884Z,3.10
2018-09-11T20:06:07.820Z,3.50
2018-09-11T20:08:43.100Z,3.90
2018-09-11T20:11:16.120Z,3.60
2018-09-11T20:13:46.817Z,3.53
2018-09-11T20:16:26.685Z,4.50
2018-09-11T20:18:56.384Z,3.83
2018-09-11T20:21:26.029Z,3.70
2018-09-11T20:23:58.948Z,3.30
2018-09-11T20:26:31.772Z,3.60
2018-09-11T20:29:01.497Z,4.00
2018-09-11T20:31:34.713Z,3.87
2018-09-11T20:34:06.329Z,3.63
2018-09-11T20:36:54.469Z,3.80
2018-09-11T20:39:24.988Z,3.50
2018-09-11T20:41:54.513Z,3.87
2018-09-11T20:44:33.505Z,4.30
2018-09-11T20:47:03.058Z,3.53
2018-09-11T20:49:34.601Z,3.77
2018-09-11T20:52:21.425Z,3.90
2018-09-11T20:54:51.461Z,4.37
2018-09-11T20:57:32.989Z,3.60
2018-09-11T21:00:02.561Z,4.07
2018-09-11T21:02:34.057Z,3.60
2018-09-11T21:05:04.780Z,3.53
2018-09-11T21:07:58.437Z,3.40
2018-09-11T21:10:29.331Z,2.80
2018-09-11T21:12:59.934Z,2.97
2018-09-11T21:15:42.405Z,3.60
2018-09-11T21:18:17.657Z,3.00
2018-09-11T21:20:59.384Z,3.40
2018-09-11T21:23:35.457Z,4.03
2018-09-11T21:26:06.065Z,3.73
2018-09-11T21:28:42.381Z,3.63
2018-09-11T21:31:31.656Z,3.80
2018-09-11T21:34:01.177Z,3.23
2018-09-11T21:36:34.677Z,3.40
2018-09-11T21:39:09.520Z,3.57
2018-09-11T21:41:39.928Z,3.47
2018-09-11T21:44:15.044Z,3.20
2018-09-11T21:46:45.500Z,3.57
2018-09-11T21:52:20.868Z,3.80
2018-09-11T21:54:50.841Z,3.80
2018-09-11T21:57:32.464Z,3.40
2018-09-11T22:00:08.411Z,4.13
2018-09-11T22:02:42.621Z,4.20
2018-09-11T22:05:14.009Z,3.47
2018-09-11T22:08:06.524Z,3.90
2018-09-11T22:10:37.156Z,3.70
2018-09-11T22:13:10.068Z,4.17
2018-09-11T22:15:44.740Z,3.77
2018-09-11T22:18:33.284Z,3.30
2018-09-11T22:21:10.076Z,3.60
2018-09-11T22:23:41.775Z,3.63
2018-09-11T22:26:13.516Z,4.13
2018-09-11T22:31:43.928Z,3.83
2018-09-11T22:34:17.280Z,4.93
2018-09-11T22:39:41.684Z,4.37
2018-09-11T22:42:15.464Z,4.73
2018-09-11T22:44:49.364Z,4.30
2018-09-11T22:47:18.791Z,4.23
2018-09-11T22:49:48.280Z,4.47
2018-09-11T22:52:17.772Z,3.87
2018-09-11T22:54:48.501Z,3.80
2018-09-11T22:57:30.368Z,3.90
2018-09-11T23:00:10.232Z,3.20
2018-09-11T23:02:52.468Z,5.00
2018-09-11T23:05:28.648Z,4.60
2018-09-11T23:08:03.752Z,4.03
2018-09-11T23:10:33.580Z,4.00
2018-09-11T23:13:10.508Z,4.43
2018-09-11T23:15:48.346Z,5.33
2018-09-11T23:18:32.476Z,4.20
2018-09-11T23:21:02.004Z,3.43
2018-09-11T23:23:35.100Z,4.13
2018-09-11T23:26:10.312Z,4.17
2018-09-11T23:28:46.480Z,4.30
2018-09-11T23:31:22.538Z,3.30
2018-09-11T23:33:52.040Z,4.27
2018-09-11T23:36:25.552Z,4.60
2018-09-11T23:39:06.103Z,4.50
2018-09-11T23:41:36.956Z,4.73
2018-09-11T23:44:11.988Z,4.50
2018-09-11T23:46:48.632Z,4.30
2018-09-11T23:49:22.976Z,4.63
2018-09-11T23:51:53.504Z,4.03
2018-09-11T23:57:23.488Z,4.43
